sensor_id;sensor_type;location;lat;lon;timestamp;pressure;altitude;pressure_sealevel;temperature;humidity
60246;BME280;46107;53.356;-1.524;2023-03-03T00:01:19;100206.14;;;4.47;48.60
60246;BME280;46107;53.356;-1.524;2023-03-03T00:03:47;100213.09;;;3.60;51.01
60246;BME280;46107;53.356;-1.524;2023-03-03T00:06:14;100216.41;;;3.89;50.19
60246;BME280;46107;53.356;-1.524;2023-03-03T00:08:42;100219.06;;;3.59;50.66
60246;BME280;46107;53.356;-1.524;2023-03-03T00:11:10;100216.40;;;4.31;49.41
60246;BME280;46107;53.356;-1.524;2023-03-03T00:13:43;100216.28;;;3.89;49.63
60246;BME280;46107;53.356;-1.524;2023-03-03T00:16:16;100229.13;;;2.87;53.57
60246;BME280;46107;53.356;-1.524;2023-03-03T00:18:49;100225.62;;;4.38;51.94
60246;BME280;46107;53.356;-1.524;2023-03-03T00:21:24;100223.36;;;2.25;55.30
60246;BME280;46107;53.356;-1.524;2023-03-03T00:23:52;100230.29;;;2.62;54.01
60246;BME280;46107;53.356;-1.524;2023-03-03T00:26:22;100229.72;;;2.95;53.73
60246;BME280;46107;53.356;-1.524;2023-03-03T00:28:53;100228.82;;;4.07;52.37
60246;BME280;46107;53.356;-1.524;2023-03-03T00:31:30;100223.90;;;2.33;54.12
60246;BME280;46107;53.356;-1.524;2023-03-03T00:34:24;100226.51;;;3.99;51.55
60246;BME280;46107;53.356;-1.524;2023-03-03T00:36:54;100222.45;;;3.17;52.63
60246;BME280;46107;53.356;-1.524;2023-03-03T00:39:28;100222.96;;;2.59;53.46
60246;BME280;46107;53.356;-1.524;2023-03-03T00:41:57;100221.83;;;3.14;53.14
60246;BME280;46107;53.356;-1.524;2023-03-03T00:44:42;100224.09;;;3.73;51.48
60246;BME280;46107;53.356;-1.524;2023-03-03T00:47:23;100223.92;;;3.18;52.88
60246;BME280;46107;53.356;-1.524;2023-03-03T00:49:51;100227.35;;;2.74;52.94
60246;BME280;46107;53.356;-1.524;2023-03-03T00:52:20;100227.22;;;3.70;52.00
60246;BME280;46107;53.356;-1.524;2023-03-03T00:54:48;100227.80;;;3.02;54.30
60246;BME280;46107;53.356;-1.524;2023-03-03T00:57:16;100231.54;;;1.62;56.59
60246;BME280;46107;53.356;-1.524;2023-03-03T00:59:44;100230.70;;;2.42;55.91
60246;BME280;46107;53.356;-1.524;2023-03-03T01:02:12;100236.68;;;3.54;54.04
60246;BME280;46107;53.356;-1.524;2023-03-03T01:04:40;100236.33;;;2.74;53.71
60246;BME280;46107;53.356;-1.524;2023-03-03T01:07:09;100236.77;;;2.32;56.26
60246;BME280;46107;53.356;-1.524;2023-03-03T01:09:37;100241.48;;;2.75;53.50
60246;BME280;46107;53.356;-1.524;2023-03-03T01:12:05;100239.41;;;2.60;53.45
60246;BME280;46107;53.356;-1.524;2023-03-03T01:14:33;100243.03;;;2.81;53.58
60246;BME280;46107;53.356;-1.524;2023-03-03T01:17:02;100248.74;;;3.60;52.96
60246;BME280;46107;53.356;-1.524;2023-03-03T01:19:30;100244.42;;;3.95;52.17
60246;BME280;46107;53.356;-1.524;2023-03-03T01:21:57;100248.17;;;3.61;51.08
60246;BME280;46107;53.356;-1.524;2023-03-03T01:24:25;100247.70;;;3.79;51.71
60246;BME280;46107;53.356;-1.524;2023-03-03T01:26:52;100245.94;;;3.96;51.69
60246;BME280;46107;53.356;-1.524;2023-03-03T01:29:20;100250.21;;;4.35;50.20
60246;BME280;46107;53.356;-1.524;2023-03-03T01:31:47;100250.47;;;3.40;52.58
60246;BME280;46107;53.356;-1.524;2023-03-03T01:34:15;100248.89;;;2.26;55.22
60246;BME280;46107;53.356;-1.524;2023-03-03T01:36:42;100246.76;;;3.66;51.97
60246;BME280;46107;53.356;-1.524;2023-03-03T01:39:11;100245.88;;;2.85;52.00
60246;BME280;46107;53.356;-1.524;2023-03-03T01:41:39;100245.78;;;3.48;51.83
60246;BME280;46107;53.356;-1.524;2023-03-03T01:44:12;100244.87;;;3.11;52.32
60246;BME280;46107;53.356;-1.524;2023-03-03T01:46:47;100247.92;;;3.38;52.35
60246;BME280;46107;53.356;-1.524;2023-03-03T01:49:21;100246.06;;;2.94;51.83
60246;BME280;46107;53.356;-1.524;2023-03-03T01:51:54;100242.79;;;2.67;51.80
60246;BME280;46107;53.356;-1.524;2023-03-03T01:54:28;100249.19;;;1.65;55.37
60246;BME280;46107;53.356;-1.524;2023-03-03T01:57:00;100246.12;;;2.79;53.38
60246;BME280;46107;53.356;-1.524;2023-03-03T01:59:32;100248.87;;;3.86;51.28
60246;BME280;46107;53.356;-1.524;2023-03-03T02:02:00;100246.02;;;3.10;53.05
60246;BME280;46107;53.356;-1.524;2023-03-03T02:04:29;100246.76;;;3.47;51.18
60246;BME280;46107;53.356;-1.524;2023-03-03T02:06:59;100246.38;;;3.97;50.61
60246;BME280;46107;53.356;-1.524;2023-03-03T02:09:33;100253.04;;;3.23;52.11
60246;BME280;46107;53.356;-1.524;2023-03-03T02:12:07;100253.70;;;3.67;51.14
60246;BME280;46107;53.356;-1.524;2023-03-03T02:14:37;100254.05;;;2.47;52.89
60246;BME280;46107;53.356;-1.524;2023-03-03T02:17:05;100249.69;;;2.63;52.67
60246;BME280;46107;53.356;-1.524;2023-03-03T02:19:38;100248.91;;;3.10;53.93
60246;BME280;46107;53.356;-1.524;2023-03-03T02:22:08;100252.29;;;3.27;52.44
60246;BME280;46107;53.356;-1.524;2023-03-03T02:24:40;100252.05;;;3.60;52.00
60246;BME280;46107;53.356;-1.524;2023-03-03T02:27:10;100243.35;;;3.47;51.39
60246;BME280;46107;53.356;-1.524;2023-03-03T02:29:38;100239.05;;;2.69;54.20
60246;BME280;46107;53.356;-1.524;2023-03-03T02:32:05;100240.90;;;3.16;53.19
60246;BME280;46107;53.356;-1.524;2023-03-03T02:34:45;100241.45;;;3.06;52.05
60246;BME280;46107;53.356;-1.524;2023-03-03T02:37:13;100242.02;;;1.86;56.62
60246;BME280;46107;53.356;-1.524;2023-03-03T02:39:42;100235.09;;;2.12;54.96
60246;BME280;46107;53.356;-1.524;2023-03-03T02:42:14;100234.90;;;2.24;55.48
60246;BME280;46107;53.356;-1.524;2023-03-03T02:44:45;100235.75;;;2.63;54.39
60246;BME280;46107;53.356;-1.524;2023-03-03T02:47:13;100237.10;;;3.66;52.57
60246;BME280;46107;53.356;-1.524;2023-03-03T02:49:41;100237.58;;;2.23;53.69
60246;BME280;46107;53.356;-1.524;2023-03-03T02:52:10;100236.92;;;2.18;53.69
60246;BME280;46107;53.356;-1.524;2023-03-03T02:54:37;100242.20;;;1.59;57.77
60246;BME280;46107;53.356;-1.524;2023-03-03T02:57:06;100238.27;;;2.17;56.63
60246;BME280;46107;53.356;-1.524;2023-03-03T02:59:33;100233.20;;;3.09;53.98
60246;BME280;46107;53.356;-1.524;2023-03-03T03:02:00;100238.18;;;2.76;54.77
60246;BME280;46107;53.356;-1.524;2023-03-03T03:04:28;100240.97;;;3.34;54.42
60246;BME280;46107;53.356;-1.524;2023-03-03T03:06:56;100236.05;;;2.49;54.93
60246;BME280;46107;53.356;-1.524;2023-03-03T03:09:24;100237.47;;;1.12;58.60
60246;BME280;46107;53.356;-1.524;2023-03-03T03:11:51;100227.14;;;2.46;55.11
60246;BME280;46107;53.356;-1.524;2023-03-03T03:14:19;100229.22;;;2.80;54.14
60246;BME280;46107;53.356;-1.524;2023-03-03T03:16:47;100226.50;;;3.56;53.49
60246;BME280;46107;53.356;-1.524;2023-03-03T03:19:15;100221.58;;;2.71;53.18
60246;BME280;46107;53.356;-1.524;2023-03-03T03:21:42;100222.78;;;2.62;55.70
60246;BME280;46107;53.356;-1.524;2023-03-03T03:24:10;100223.62;;;3.17;52.51
60246;BME280;46107;53.356;-1.524;2023-03-03T03:26:37;100223.73;;;3.17;53.91
60246;BME280;46107;53.356;-1.524;2023-03-03T03:29:05;100219.79;;;1.97;57.20
60246;BME280;46107;53.356;-1.524;2023-03-03T03:31:33;100214.14;;;2.42;54.69
60246;BME280;46107;53.356;-1.524;2023-03-03T03:34:00;100221.06;;;2.15;55.37
60246;BME280;46107;53.356;-1.524;2023-03-03T03:36:28;100223.51;;;0.78;59.00
60246;BME280;46107;53.356;-1.524;2023-03-03T03:38:55;100217.72;;;3.29;53.17
60246;BME280;46107;53.356;-1.524;2023-03-03T03:41:22;100216.22;;;2.43;53.92
60246;BME280;46107;53.356;-1.524;2023-03-03T03:43:50;100217.10;;;3.11;54.37
60246;BME280;46107;53.356;-1.524;2023-03-03T03:46:17;100225.11;;;1.52;57.69
60246;BME280;46107;53.356;-1.524;2023-03-03T03:48:45;100222.65;;;2.29;56.71
60246;BME280;46107;53.356;-1.524;2023-03-03T03:51:13;100221.44;;;2.45;56.37
60246;BME280;46107;53.356;-1.524;2023-03-03T03:53:41;100223.82;;;3.45;54.05
60246;BME280;46107;53.356;-1.524;2023-03-03T03:56:09;100222.35;;;2.66;54.26
60246;BME280;46107;53.356;-1.524;2023-03-03T03:58:37;100221.62;;;3.95;52.42
60246;BME280;46107;53.356;-1.524;2023-03-03T04:01:06;100220.46;;;3.63;52.35
60246;BME280;46107;53.356;-1.524;2023-03-03T04:03:35;100218.72;;;3.56;51.65
60246;BME280;46107;53.356;-1.524;2023-03-03T04:06:02;100216.03;;;3.46;52.18
60246;BME280;46107;53.356;-1.524;2023-03-03T04:08:30;100215.29;;;2.97;53.05
60246;BME280;46107;53.356;-1.524;2023-03-03T04:10:57;100215.92;;;3.68;52.37
60246;BME280;46107;53.356;-1.524;2023-03-03T04:13:25;100214.64;;;2.66;53.13
60246;BME280;46107;53.356;-1.524;2023-03-03T04:15:53;100217.07;;;3.80;51.62
60246;BME280;46107;53.356;-1.524;2023-03-03T04:18:20;100219.93;;;3.42;52.45
60246;BME280;46107;53.356;-1.524;2023-03-03T04:20:49;100216.68;;;2.81;54.12
60246;BME280;46107;53.356;-1.524;2023-03-03T04:23:16;100215.64;;;2.57;54.81
60246;BME280;46107;53.356;-1.524;2023-03-03T04:25:45;100219.26;;;1.89;57.13
60246;BME280;46107;53.356;-1.524;2023-03-03T04:28:13;100217.55;;;2.80;56.46
60246;BME280;46107;53.356;-1.524;2023-03-03T04:30:40;100217.35;;;2.90;56.03
60246;BME280;46107;53.356;-1.524;2023-03-03T04:33:08;100220.64;;;2.84;55.10
60246;BME280;46107;53.356;-1.524;2023-03-03T04:35:36;100217.03;;;2.32;57.05
60246;BME280;46107;53.356;-1.524;2023-03-03T04:38:04;100215.74;;;2.73;55.78
60246;BME280;46107;53.356;-1.524;2023-03-03T04:40:32;100225.04;;;1.59;59.12
60246;BME280;46107;53.356;-1.524;2023-03-03T04:42:59;100220.67;;;1.94;57.48
60246;BME280;46107;53.356;-1.524;2023-03-03T04:45:27;100214.88;;;2.17;57.35
60246;BME280;46107;53.356;-1.524;2023-03-03T04:47:54;100217.08;;;2.35;56.43
60246;BME280;46107;53.356;-1.524;2023-03-03T04:50:22;100218.41;;;2.34;57.11
60246;BME280;46107;53.356;-1.524;2023-03-03T04:52:49;100216.58;;;2.01;57.67
60246;BME280;46107;53.356;-1.524;2023-03-03T04:55:16;100216.83;;;1.96;58.00
60246;BME280;46107;53.356;-1.524;2023-03-03T04:57:44;100215.36;;;2.76;56.01
60246;BME280;46107;53.356;-1.524;2023-03-03T05:00:15;100218.44;;;1.73;57.82
60246;BME280;46107;53.356;-1.524;2023-03-03T05:02:43;100224.16;;;1.71;59.31
60246;BME280;46107;53.356;-1.524;2023-03-03T05:05:11;100220.10;;;3.31;56.98
60246;BME280;46107;53.356;-1.524;2023-03-03T05:07:39;100219.24;;;2.36;56.69
60246;BME280;46107;53.356;-1.524;2023-03-03T05:10:08;100223.93;;;3.64;53.73
60246;BME280;46107;53.356;-1.524;2023-03-03T05:12:35;100221.76;;;2.61;55.46
60246;BME280;46107;53.356;-1.524;2023-03-03T05:15:04;100220.08;;;2.65;55.25
60246;BME280;46107;53.356;-1.524;2023-03-03T05:17:32;100219.81;;;2.13;55.99
60246;BME280;46107;53.356;-1.524;2023-03-03T05:19:59;100223.89;;;1.77;57.82
60246;BME280;46107;53.356;-1.524;2023-03-03T05:22:28;100222.53;;;2.26;57.25
60246;BME280;46107;53.356;-1.524;2023-03-03T05:24:56;100219.66;;;1.50;58.66
60246;BME280;46107;53.356;-1.524;2023-03-03T05:27:24;100218.39;;;2.53;57.13
60246;BME280;46107;53.356;-1.524;2023-03-03T05:29:51;100214.90;;;1.85;55.75
60246;BME280;46107;53.356;-1.524;2023-03-03T05:32:19;100218.79;;;2.07;57.66
60246;BME280;46107;53.356;-1.524;2023-03-03T05:34:47;100222.09;;;1.70;57.75
60246;BME280;46107;53.356;-1.524;2023-03-03T05:37:15;100212.71;;;2.26;55.88
60246;BME280;46107;53.356;-1.524;2023-03-03T05:39:43;100212.89;;;2.57;55.79
60246;BME280;46107;53.356;-1.524;2023-03-03T05:42:11;100213.64;;;3.05;54.40
60246;BME280;46107;53.356;-1.524;2023-03-03T05:44:39;100216.74;;;2.11;55.65
60246;BME280;46107;53.356;-1.524;2023-03-03T05:47:07;100217.36;;;1.62;56.33
60246;BME280;46107;53.356;-1.524;2023-03-03T05:49:35;100216.94;;;3.31;54.65
60246;BME280;46107;53.356;-1.524;2023-03-03T05:52:02;100213.72;;;2.53;54.60
60246;BME280;46107;53.356;-1.524;2023-03-03T05:54:30;100211.70;;;4.30;51.21
60246;BME280;46107;53.356;-1.524;2023-03-03T05:56:57;100213.64;;;4.11;51.11
60246;BME280;46107;53.356;-1.524;2023-03-03T05:59:25;100215.50;;;3.70;50.98
60246;BME280;46107;53.356;-1.524;2023-03-03T06:01:52;100217.47;;;3.48;51.65
60246;BME280;46107;53.356;-1.524;2023-03-03T06:04:20;100218.49;;;3.27;51.97
60246;BME280;46107;53.356;-1.524;2023-03-03T06:06:47;100219.16;;;3.48;52.54
60246;BME280;46107;53.356;-1.524;2023-03-03T06:09:15;100218.73;;;2.65;54.03
60246;BME280;46107;53.356;-1.524;2023-03-03T06:11:42;100217.87;;;2.89;53.88
60246;BME280;46107;53.356;-1.524;2023-03-03T06:14:11;100217.65;;;2.92;55.42
60246;BME280;46107;53.356;-1.524;2023-03-03T06:16:38;100217.32;;;3.59;53.81
60246;BME280;46107;53.356;-1.524;2023-03-03T06:19:06;100214.71;;;3.34;54.02
60246;BME280;46107;53.356;-1.524;2023-03-03T06:21:34;100216.93;;;3.56;53.74
60246;BME280;46107;53.356;-1.524;2023-03-03T06:24:01;100214.88;;;2.01;57.59
60246;BME280;46107;53.356;-1.524;2023-03-03T06:26:30;100219.46;;;2.91;56.28
60246;BME280;46107;53.356;-1.524;2023-03-03T06:28:58;100219.85;;;3.68;56.02
60246;BME280;46107;53.356;-1.524;2023-03-03T06:31:27;100218.77;;;3.37;54.91
60246;BME280;46107;53.356;-1.524;2023-03-03T06:33:55;100221.09;;;2.54;58.59
60246;BME280;46107;53.356;-1.524;2023-03-03T06:36:23;100223.13;;;3.17;57.95
60246;BME280;46107;53.356;-1.524;2023-03-03T06:38:50;100223.99;;;3.61;55.83
60246;BME280;46107;53.356;-1.524;2023-03-03T06:41:17;100223.17;;;2.43;60.28
60246;BME280;46107;53.356;-1.524;2023-03-03T06:43:45;100226.59;;;2.83;58.97
60246;BME280;46107;53.356;-1.524;2023-03-03T06:46:13;100225.60;;;2.42;59.11
60246;BME280;46107;53.356;-1.524;2023-03-03T06:48:40;100229.19;;;2.30;59.76
60246;BME280;46107;53.356;-1.524;2023-03-03T06:51:21;100232.66;;;2.70;58.41
60246;BME280;46107;53.356;-1.524;2023-03-03T06:53:51;100236.50;;;2.55;58.90
60246;BME280;46107;53.356;-1.524;2023-03-03T06:56:20;100236.36;;;3.03;58.21
60246;BME280;46107;53.356;-1.524;2023-03-03T06:58:48;100241.00;;;1.91;60.49
60246;BME280;46107;53.356;-1.524;2023-03-03T07:01:17;100243.49;;;3.46;58.30
60246;BME280;46107;53.356;-1.524;2023-03-03T07:03:44;100248.04;;;3.33;57.73
60246;BME280;46107;53.356;-1.524;2023-03-03T07:06:20;100245.96;;;2.66;57.22
60246;BME280;46107;53.356;-1.524;2023-03-03T07:08:48;100253.52;;;2.95;58.17
60246;BME280;46107;53.356;-1.524;2023-03-03T07:11:18;100258.18;;;2.59;59.61
60246;BME280;46107;53.356;-1.524;2023-03-03T07:13:48;100259.97;;;3.25;56.56
60246;BME280;46107;53.356;-1.524;2023-03-03T07:16:18;100261.43;;;3.11;57.64
60246;BME280;46107;53.356;-1.524;2023-03-03T07:18:49;100265.56;;;3.05;58.64
60246;BME280;46107;53.356;-1.524;2023-03-03T07:21:19;100263.57;;;2.90;56.91
60246;BME280;46107;53.356;-1.524;2023-03-03T07:23:49;100267.98;;;2.80;57.54
60246;BME280;46107;53.356;-1.524;2023-03-03T07:26:19;100272.69;;;3.10;58.78
60246;BME280;46107;53.356;-1.524;2023-03-03T07:28:52;100278.87;;;1.97;61.44
60246;BME280;46107;53.356;-1.524;2023-03-03T07:31:28;100282.06;;;1.60;65.60
60246;BME280;46107;53.356;-1.524;2023-03-03T07:33:58;100285.01;;;1.98;66.71
60246;BME280;46107;53.356;-1.524;2023-03-03T07:36:28;100281.48;;;2.04;64.07
60246;BME280;46107;53.356;-1.524;2023-03-03T07:38:58;100284.14;;;1.13;68.33
60246;BME280;46107;53.356;-1.524;2023-03-03T07:41:27;100284.90;;;2.64;63.36
60246;BME280;46107;53.356;-1.524;2023-03-03T07:43:59;100283.66;;;1.90;64.09
60246;BME280;46107;53.356;-1.524;2023-03-03T07:46:40;100285.39;;;3.04;61.87
60246;BME280;46107;53.356;-1.524;2023-03-03T07:49:20;100288.37;;;2.81;62.26
60246;BME280;46107;53.356;-1.524;2023-03-03T07:51:52;100289.01;;;2.61;61.11
60246;BME280;46107;53.356;-1.524;2023-03-03T07:54:28;100291.79;;;2.04;63.29
60246;BME280;46107;53.356;-1.524;2023-03-03T07:56:59;100289.57;;;1.57;64.36
60246;BME280;46107;53.356;-1.524;2023-03-03T07:59:30;100290.69;;;2.97;61.55
60246;BME280;46107;53.356;-1.524;2023-03-03T08:02:01;100288.76;;;1.93;63.48
60246;BME280;46107;53.356;-1.524;2023-03-03T08:04:39;100289.88;;;2.15;64.59
60246;BME280;46107;53.356;-1.524;2023-03-03T08:07:11;100293.52;;;2.17;64.69
60246;BME280;46107;53.356;-1.524;2023-03-03T08:09:46;100292.25;;;2.05;65.80
60246;BME280;46107;53.356;-1.524;2023-03-03T08:12:23;100293.11;;;3.40;61.45
60246;BME280;46107;53.356;-1.524;2023-03-03T08:14:55;100293.74;;;2.60;62.46
60246;BME280;46107;53.356;-1.524;2023-03-03T08:17:24;100297.34;;;2.12;65.30
60246;BME280;46107;53.356;-1.524;2023-03-03T08:19:56;100297.31;;;2.02;65.92
60246;BME280;46107;53.356;-1.524;2023-03-03T08:22:30;100301.12;;;2.75;65.22
60246;BME280;46107;53.356;-1.524;2023-03-03T08:24:59;100304.88;;;1.16;69.11
60246;BME280;46107;53.356;-1.524;2023-03-03T08:27:27;100309.42;;;2.35;64.59
60246;BME280;46107;53.356;-1.524;2023-03-03T08:29:54;100313.93;;;2.48;65.44
60246;BME280;46107;53.356;-1.524;2023-03-03T08:32:21;100317.23;;;1.77;67.54
60246;BME280;46107;53.356;-1.524;2023-03-03T08:34:49;100317.61;;;1.62;67.23
60246;BME280;46107;53.356;-1.524;2023-03-03T08:37:16;100320.22;;;1.99;68.32
60246;BME280;46107;53.356;-1.524;2023-03-03T08:39:44;100320.28;;;1.80;68.32
60246;BME280;46107;53.356;-1.524;2023-03-03T08:42:11;100322.85;;;1.89;70.17
60246;BME280;46107;53.356;-1.524;2023-03-03T08:44:39;100322.93;;;2.63;66.45
60246;BME280;46107;53.356;-1.524;2023-03-03T08:47:06;100326.81;;;1.48;71.49
60246;BME280;46107;53.356;-1.524;2023-03-03T08:49:34;100326.17;;;1.19;71.41
60246;BME280;46107;53.356;-1.524;2023-03-03T08:52:02;100332.20;;;1.63;71.42
60246;BME280;46107;53.356;-1.524;2023-03-03T08:54:31;100327.23;;;1.00;72.05
60246;BME280;46107;53.356;-1.524;2023-03-03T08:56:59;100331.54;;;2.34;69.62
60246;BME280;46107;53.356;-1.524;2023-03-03T08:59:26;100332.76;;;1.36;71.22
60246;BME280;46107;53.356;-1.524;2023-03-03T09:01:53;100330.11;;;2.07;69.75
60246;BME280;46107;53.356;-1.524;2023-03-03T09:04:21;100332.47;;;2.14;69.69
60246;BME280;46107;53.356;-1.524;2023-03-03T09:06:49;100334.88;;;1.93;69.54
60246;BME280;46107;53.356;-1.524;2023-03-03T09:09:17;100334.48;;;2.54;67.70
60246;BME280;46107;53.356;-1.524;2023-03-03T09:11:44;100336.51;;;1.98;68.83
60246;BME280;46107;53.356;-1.524;2023-03-03T09:14:13;100333.45;;;3.21;66.89
60246;BME280;46107;53.356;-1.524;2023-03-03T09:16:44;100329.10;;;3.08;65.78
60246;BME280;46107;53.356;-1.524;2023-03-03T09:19:22;100337.66;;;2.00;69.41
60246;BME280;46107;53.356;-1.524;2023-03-03T09:21:51;100337.68;;;2.57;69.00
60246;BME280;46107;53.356;-1.524;2023-03-03T09:24:24;100339.31;;;2.26;70.14
60246;BME280;46107;53.356;-1.524;2023-03-03T09:26:52;100339.12;;;2.01;67.29
60246;BME280;46107;53.356;-1.524;2023-03-03T09:29:25;100341.61;;;2.54;64.88
60246;BME280;46107;53.356;-1.524;2023-03-03T09:31:54;100344.94;;;2.08;64.74
60246;BME280;46107;53.356;-1.524;2023-03-03T09:34:35;100349.67;;;2.20;65.83
60246;BME280;46107;53.356;-1.524;2023-03-03T09:37:17;100347.42;;;2.21;67.59
60246;BME280;46107;53.356;-1.524;2023-03-03T09:39:49;100351.77;;;1.40;70.85
60246;BME280;46107;53.356;-1.524;2023-03-03T09:42:54;100351.34;;;1.66;69.31
60246;BME280;46107;53.356;-1.524;2023-03-03T09:45:37;100351.46;;;1.13;69.96
60246;BME280;46107;53.356;-1.524;2023-03-03T09:48:28;100351.87;;;2.05;68.00
60246;BME280;46107;53.356;-1.524;2023-03-03T09:51:18;100351.37;;;2.32;65.46
60246;BME280;46107;53.356;-1.524;2023-03-03T09:54:00;100356.35;;;2.70;64.14
60246;BME280;46107;53.356;-1.524;2023-03-03T09:56:33;100358.14;;;2.61;63.07
60246;BME280;46107;53.356;-1.524;2023-03-03T09:59:14;100355.80;;;2.84;63.91
60246;BME280;46107;53.356;-1.524;2023-03-03T10:01:55;100358.23;;;1.50;68.65
60246;BME280;46107;53.356;-1.524;2023-03-03T10:04:43;100363.55;;;2.17;63.59
60246;BME280;46107;53.356;-1.524;2023-03-03T10:07:25;100368.53;;;2.02;64.42
60246;BME280;46107;53.356;-1.524;2023-03-03T10:10:05;100371.51;;;2.69;61.06
60246;BME280;46107;53.356;-1.524;2023-03-03T10:12:46;100371.60;;;3.03;60.57
60246;BME280;46107;53.356;-1.524;2023-03-03T10:15:20;100368.51;;;1.36;65.97
60246;BME280;46107;53.356;-1.524;2023-03-03T10:18:00;100370.01;;;2.39;61.57
60246;BME280;46107;53.356;-1.524;2023-03-03T10:20:41;100373.16;;;1.67;63.79
60246;BME280;46107;53.356;-1.524;2023-03-03T10:23:19;100368.82;;;3.37;58.92
60246;BME280;46107;53.356;-1.524;2023-03-03T10:25:54;100371.12;;;2.83;60.76
60246;BME280;46107;53.356;-1.524;2023-03-03T10:29:10;100366.72;;;3.63;59.79
60246;BME280;46107;53.356;-1.524;2023-03-03T10:31:53;100371.58;;;3.08;59.51
60246;BME280;46107;53.356;-1.524;2023-03-03T10:34:47;100371.70;;;3.29;58.23
60246;BME280;46107;53.356;-1.524;2023-03-03T10:37:22;100374.36;;;2.95;60.47
60246;BME280;46107;53.356;-1.524;2023-03-03T10:40:02;100369.85;;;3.89;57.27
60246;BME280;46107;53.356;-1.524;2023-03-03T10:43:09;100367.84;;;3.32;58.87
60246;BME280;46107;53.356;-1.524;2023-03-03T10:45:59;100366.26;;;3.06;61.70
60246;BME280;46107;53.356;-1.524;2023-03-03T10:48:38;100366.71;;;2.94;63.24
60246;BME280;46107;53.356;-1.524;2023-03-03T10:51:18;100367.08;;;3.30;60.99
60246;BME280;46107;53.356;-1.524;2023-03-03T10:53:56;100366.07;;;3.73;59.79
60246;BME280;46107;53.356;-1.524;2023-03-03T10:56:35;100368.40;;;2.20;61.47
60246;BME280;46107;53.356;-1.524;2023-03-03T10:59:18;100367.29;;;3.18;59.86
60246;BME280;46107;53.356;-1.524;2023-03-03T11:01:55;100368.59;;;3.48;59.39
60246;BME280;46107;53.356;-1.524;2023-03-03T11:04:35;100369.45;;;2.98;61.21
60246;BME280;46107;53.356;-1.524;2023-03-03T11:07:07;100369.50;;;3.23;62.87
60246;BME280;46107;53.356;-1.524;2023-03-03T11:09:51;100366.90;;;3.48;60.62
60246;BME280;46107;53.356;-1.524;2023-03-03T11:12:30;100367.90;;;4.08;58.82
60246;BME280;46107;53.356;-1.524;2023-03-03T11:15:14;100368.10;;;3.70;58.95
60246;BME280;46107;53.356;-1.524;2023-03-03T11:17:55;100365.44;;;3.53;59.13
60246;BME280;46107;53.356;-1.524;2023-03-03T11:20:33;100368.10;;;3.63;59.47
60246;BME280;46107;53.356;-1.524;2023-03-03T11:23:12;100371.31;;;3.45;59.94
60246;BME280;46107;53.356;-1.524;2023-03-03T11:25:52;100376.02;;;4.17;58.84
60246;BME280;46107;53.356;-1.524;2023-03-03T11:28:35;100370.21;;;3.88;58.96
60246;BME280;46107;53.356;-1.524;2023-03-03T11:31:15;100375.71;;;4.17;59.23
60246;BME280;46107;53.356;-1.524;2023-03-03T11:33:52;100375.32;;;3.69;60.98
60246;BME280;46107;53.356;-1.524;2023-03-03T11:36:27;100375.63;;;3.50;58.89
60246;BME280;46107;53.356;-1.524;2023-03-03T11:38:58;100378.34;;;3.36;61.45
60246;BME280;46107;53.356;-1.524;2023-03-03T11:41:31;100376.71;;;3.63;61.56
60246;BME280;46107;53.356;-1.524;2023-03-03T11:44:08;100379.85;;;4.12;61.45
60246;BME280;46107;53.356;-1.524;2023-03-03T11:46:42;100376.98;;;3.82;61.00
60246;BME280;46107;53.356;-1.524;2023-03-03T11:49:15;100380.12;;;3.88;61.98
60246;BME280;46107;53.356;-1.524;2023-03-03T11:51:52;100378.91;;;3.86;64.16
60246;BME280;46107;53.356;-1.524;2023-03-03T11:54:26;100382.54;;;3.89;61.80
60246;BME280;46107;53.356;-1.524;2023-03-03T11:57:09;100382.94;;;3.33;64.79
60246;BME280;46107;53.356;-1.524;2023-03-03T11:59:49;100382.68;;;4.12;62.19
60246;BME280;46107;53.356;-1.524;2023-03-03T12:02:46;100387.31;;;3.33;66.36
60246;BME280;46107;53.356;-1.524;2023-03-03T12:05:30;100386.41;;;3.77;65.23
60246;BME280;46107;53.356;-1.524;2023-03-03T12:08:10;100390.28;;;4.16;65.91
60246;BME280;46107;53.356;-1.524;2023-03-03T12:10:48;100390.90;;;3.54;65.57
60246;BME280;46107;53.356;-1.524;2023-03-03T12:13:24;100392.16;;;3.68;65.80
60246;BME280;46107;53.356;-1.524;2023-03-03T12:16:05;100390.13;;;3.55;65.76
60246;BME280;46107;53.356;-1.524;2023-03-03T12:18:49;100392.77;;;3.88;65.34
60246;BME280;46107;53.356;-1.524;2023-03-03T12:21:29;100387.33;;;3.77;66.59
60246;BME280;46107;53.356;-1.524;2023-03-03T12:24:12;100390.92;;;4.35;63.83
60246;BME280;46107;53.356;-1.524;2023-03-03T12:26:51;100390.63;;;4.35;63.02
60246;BME280;46107;53.356;-1.524;2023-03-03T12:29:26;100384.65;;;4.89;60.50
60246;BME280;46107;53.356;-1.524;2023-03-03T12:32:09;100379.41;;;5.34;57.77
60246;BME280;46107;53.356;-1.524;2023-03-03T12:34:48;100381.15;;;4.59;58.65
60246;BME280;46107;53.356;-1.524;2023-03-03T12:37:27;100378.71;;;5.18;55.11
60246;BME280;46107;53.356;-1.524;2023-03-03T12:40:06;100374.76;;;4.62;58.22
60246;BME280;46107;53.356;-1.524;2023-03-03T12:42:45;100367.97;;;5.20;54.72
60246;BME280;46107;53.356;-1.524;2023-03-03T12:45:27;100364.85;;;5.18;55.89
60246;BME280;46107;53.356;-1.524;2023-03-03T12:48:02;100357.23;;;5.98;52.22
60246;BME280;46107;53.356;-1.524;2023-03-03T12:50:40;100352.85;;;5.46;52.40
60246;BME280;46107;53.356;-1.524;2023-03-03T12:53:22;100353.48;;;4.94;52.16
60246;BME280;46107;53.356;-1.524;2023-03-03T12:55:54;100350.03;;;5.00;53.21
60246;BME280;46107;53.356;-1.524;2023-03-03T12:58:32;100355.31;;;4.14;55.31
60246;BME280;46107;53.356;-1.524;2023-03-03T13:01:13;100355.84;;;4.52;55.27
60246;BME280;46107;53.356;-1.524;2023-03-03T13:03:52;100354.55;;;3.64;56.73
60246;BME280;46107;53.356;-1.524;2023-03-03T13:06:27;100353.56;;;5.20;54.18
60246;BME280;46107;53.356;-1.524;2023-03-03T13:09:10;100359.65;;;4.03;55.98
60246;BME280;46107;53.356;-1.524;2023-03-03T13:11:53;100356.76;;;4.54;55.21
60246;BME280;46107;53.356;-1.524;2023-03-03T13:14:31;100346.22;;;4.78;53.72
60246;BME280;46107;53.356;-1.524;2023-03-03T13:17:12;100349.56;;;4.66;54.83